Kezdőlap
METAR-TAF:

METAR-TAF

Repülőterek :

Kastamonu, Törökország

földrajzi szélesség: 41-19-01N, földrajzi hosszúság: 33-47-46E, magasság: 1073 m

Jelenlegi meteorológiai megfigyelések

A jelentés 55 perccel ezelõtt készült, 09:50 UTC
Délnyugati szél 4 kt
Hőmérséklet 11°C
Páratartalom 43%
Légköri nyomás 1024 hPa
Látótávolság 10 km, vagy több
Kevés felhő 4000 lábon
Szakadozott felhőzet 20000 lábon

METAR: LTAL 230950Z 23004KT 9999 FEW040 BKN200 11/M01 Q1024

Idő: 13:45 (10:45 UTC)

Előrejelzés

A jelentés 3 órával és 5 perccel ezelõtt készült, 07:40 UTC
Az előrejelzés 23-én 09 óra UTC és 23-én 18 óra UTC között érvényes
Különbözõ irányokból fújó szél 2 kt
Látótávolság 10 km, vagy több
felhőtlen 1500 m magasságban, és nincs gomolyfelhõ

TAF: LTAL 230740Z 2309/2318 VRB02KT CAVOK

Meteorológiai megfigyelések és előrejelzések több, mint 4000 repülőtéren (METAR és TAF jelentéseket).

A térképen piros és sárga pontok jelzik az elérhető meteorológiai állomásokat.

Mozgassa az egeret a pont fölött, hogy megjelenjen az állomás neve.

Azután kattintson az időjárási megfigyelések és előrejelzések megtekintéséhez.

A térkép megváltoztatása: kattintson a fekete keresztel jelölt zöld gombra ráközelítéshez, a vonallal jelölt zöld gombra távolításhoz, vagy a zöld nyilakra a szomszédos térképek eléréséhez.


METAR-TAF: